deformed-offering

Nearby METAR Reports

 

KNUQ - Moffett Nas/Mtn, California, USA
Distance from station: N 9mi, 14km
Updated: Fri, 19-Jan-2018 6:56am PST
Clear
Clear
 Wind from calm
Wind: Calm
Temperature: 46°F , 8°C
Dew Point: 45°F , 7°C
Humidity: 93%
Barometer: 30.13 inHg , 1020.3 hPa
Clouds: Clear
Visibility: 10 miles , 16 km
2018/01/19 14:56 KNUQ 191456Z 00000KT 10SM CLR 08/07 A3013 RMK AO2 SLP203 T00830072 53006
KSJC - San Jose, California, USA
Distance from station: NE 9mi, 14km
Updated: Fri, 19-Jan-2018 6:53am PST
Mostly Cloudy
Mostly Cloudy
 Wind from SSE
Wind: SSE 3 mph , 6 km/h
Temperature: 48°F , 9°C
Dew Point: 46°F , 8°C
Humidity: 94%
Barometer: 30.11 inHg , 1019.6 hPa
Clouds: Mostly Cloudy
Visibility: 10 miles , 16 km
Cloud details: Few Clouds 100 ft
Partly Cloudy 2300 ft
Mostly Cloudy 5500 ft
2018/01/19 14:53 KSJC 191453Z 16003KT 10SM FEW001 SCT023 BKN055 09/08 A3011 RMK AO2 SLP197 T00940078 53004
 
KRHV - San Jose/Reid, California, USA
Distance from station: ENE 12mi, 19km
Updated: Fri, 19-Jan-2018 6:47am PST
Mostly Cloudy
Mostly Cloudy
 Wind from calm
Wind: Calm
Temperature: 48°F , 9°C
Dew Point: 48°F , 9°C
Humidity: 100%
Barometer: 30.10 inHg , 1019.3 hPa
Clouds: Mostly Cloudy
Visibility: 8 miles , 13 km
Cloud details: Few Clouds 600 ft
Partly Cloudy 800 ft
Mostly Cloudy 4000 ft
2018/01/19 14:47 KRHV 191447Z 00000KT 8SM FEW006 SCT008 BKN040 09/09 A3010
KPAO - Palo Alto, California, USA
Distance from station: NNW 14mi, 23km
Updated: Fri, 19-Jan-2018 6:47am PST
Partly Cloudy
Partly Cloudy
 Wind from varies
Wind: varies 5 mph , 7 km/h
Temperature: 48°F , 9°C
Wind Chill: 46°F , 8°C
Dew Point: 46°F , 8°C
Humidity: 94%
Barometer: 30.11 inHg , 1019.6 hPa
Clouds: Partly Cloudy
Visibility: 10 miles , 16 km
Cloud details: Few Clouds 1200 ft
Partly Cloudy 3300 ft
2018/01/19 14:47 KPAO 191447Z VRB04KT 10SM FEW012 SCT033 09/08 A3011
 
KSQL - San Carlos Airpo, California, USA
Distance from station: NW 21mi, 34km
Updated: Fri, 19-Jan-2018 6:55am PST
Clear
Clear
 Wind from calm
Wind: Calm
Temperature: 50°F , 10°C
Dew Point: 45°F , 7°C
Humidity: 82%
Barometer: 30.12 inHg , 1020 hPa
Clouds: Clear
Visibility: 10 miles , 16 km
2018/01/19 14:55 KSQL 191455Z AUTO 00000KT 10SM CLR 10/07 A3012 RMK AO2
KE16 - San Martin, California, USA
Distance from station: ESE 27mi, 43km
Updated: Fri, 19-Jan-2018 7:30am PST
Overcast
Overcast
 Wind from calm
Wind: Calm
Temperature: 46°F , 8°C
Dew Point: 46°F , 8°C
Humidity: 100%
Barometer: 30.13 inHg , 1020.3 hPa
Clouds: Overcast
Visibility: 10 miles , 16 km
Cloud details: Mostly Cloudy 1800 ft
Mostly Cloudy 2300 ft
Overcast 3500 ft
2018/01/19 15:30 KE16 191530Z AUTO 00000KT 10SM BKN018 BKN023 OVC035 08/08 A3013 RMK AO2
 
KWVI - Watsonville, California, USA
Distance from station: SSE 27mi, 44km
Updated: Fri, 19-Jan-2018 6:53am PST
Clear
Clear
 Wind from NW
Wind: NW 3 mph , 6 km/h
Temperature: 45°F , 7°C
Barometer: 30.12 inHg , 1020 hPa
Clouds: Clear
Visibility: 10 miles , 16 km
2018/01/19 14:53 KWVI 191453Z AUTO 32003KT 10SM CLR 07/ A3012 RMK AO2 SLP199 T0072 53005 $
KHWD - Hayward, California, USA
Distance from station: N 28mi, 44km
Updated: Fri, 19-Jan-2018 6:54am PST
Overcast
Overcast
 Wind from ENE
Wind: ENE 3 mph , 6 km/h
Temperature: 48°F , 9°C
Dew Point: 43°F , 6°C
Humidity: 82%
Barometer: 30.11 inHg , 1019.6 hPa
Clouds: Overcast
Visibility: 10 miles , 16 km
Cloud details: Partly Cloudy 3500 ft
Partly Cloudy 4400 ft
Overcast 5500 ft
2018/01/19 14:54 KHWD 191454Z 06003KT 10SM SCT035 SCT044 OVC055 09/06 A3011 RMK AO2 SLP207 T00890061 53005
 
KSFO - San Francisco, California, USA
Distance from station: NW 30mi, 49km
Updated: Fri, 19-Jan-2018 6:56am PST
Overcast
Overcast
 Wind from calm
Wind: Calm
Temperature: 52°F , 11°C
Dew Point: 45°F , 7°C
Humidity: 77%
Barometer: 30.11 inHg , 1019.6 hPa
Clouds: Overcast
Visibility: 10 miles , 16 km
Cloud details: Overcast 20000 ft
2018/01/19 14:56 KSFO 191456Z 00000KT 10SM OVC200 11/07 A3011 RMK AO2 SLP196 T01060067 53004
KHAF - Half Moon Bay, California, USA
Distance from station: WNW 31mi, 50km
Updated: Fri, 19-Jan-2018 7:35am PST
Mostly Cloudy
Mostly Cloudy
 Wind from ENE
Wind: ENE 3 mph , 6 km/h
Temperature: 46°F , 8°C
Dew Point: 43°F , 6°C
Humidity: 87%
Barometer: 30.10 inHg , 1019.3 hPa
Clouds: Mostly Cloudy
Visibility: 7 miles , 11 km
Cloud details: Partly Cloudy 300 ft
Mostly Cloudy 5000 ft
2018/01/19 15:35 KHAF 191535Z AUTO 07003KT 7SM SCT003 BKN050 08/06 A3010 RMK AO2
 
KOAK - Oakland, California, USA
Distance from station: NNW 31mi, 50km
Updated: Fri, 19-Jan-2018 6:53am PST
Overcast
Overcast
 Wind from calm
Wind: Calm
Temperature: 46°F , 8°C
Dew Point: 45°F , 7°C
Humidity: 93%
Barometer: 30.12 inHg , 1020 hPa
Clouds: Overcast
Visibility: 10 miles , 16 km
Cloud details: Mostly Cloudy 5500 ft
Overcast 15000 ft
2018/01/19 14:53 KOAK 191453Z 00000KT 10SM BKN055 OVC150 08/07 A3012 RMK AO2 RAB25E38 SLP198 P0000 60000 T00780072 53005
KLVK - Livermore, California, USA
Distance from station: NNE 31mi, 51km
Updated: Fri, 19-Jan-2018 6:53am PST
Clear
Clear
 Wind from calm
Wind: Calm
Temperature: 45°F , 7°C
Dew Point: 45°F , 7°C
Humidity: 100%
Barometer: 30.10 inHg , 1019.3 hPa
Clouds: Clear
Visibility: 10 miles , 16 km
2018/01/19 14:53 KLVK 191453Z 00000KT 10SM CLR 07/07 A3010 RMK AO2 SLP194 T00720067 53005
 
KCVH - Hollister Muni, California, USA
Distance from station: SE 42mi, 68km
Updated: Fri, 19-Jan-2018 7:35am PST
Mostly Cloudy
Mostly Cloudy
 Wind from calm
Wind: Calm
Temperature: 48°F , 9°C
Dew Point: 46°F , 8°C
Humidity: 94%
Barometer: 30.13 inHg , 1020.3 hPa
Clouds: Mostly Cloudy
Visibility: 10 miles , 16 km
Cloud details: Mostly Cloudy 1600 ft
Mostly Cloudy 2400 ft
2018/01/19 15:35 KCVH 191535Z AUTO 00000KT 10SM BKN016 BKN024 09/08 A3013 RMK A01
KSNS - Salinas, California, USA
Distance from station: SSE 48mi, 77km
Updated: Fri, 19-Jan-2018 6:53am PST
Clear
Clear
 Wind from NW
Wind: NW 3 mph , 6 km/h
Temperature: 48°F , 9°C
Dew Point: 48°F , 9°C
Humidity: 100%
Barometer: 30.11 inHg , 1019.6 hPa
Clouds: Clear
Visibility: 8 miles , 13 km
2018/01/19 14:53 KSNS 191453Z 32003KT 8SM CLR 09/09 A3011 RMK AO2 SLP206 T00940089 53006
 
KMRY - Monterey, California, USA
Distance from station: SSE 49mi, 78km
Updated: Fri, 19-Jan-2018 6:54am PST
Overcast
Overcast
 Wind from calm
Wind: Calm
Temperature: 50°F , 10°C
Dew Point: 48°F , 9°C
Humidity: 94%
Barometer: 30.12 inHg , 1020 hPa
Clouds: Overcast
Visibility: 10 miles , 16 km
Cloud details: Few Clouds 2500 ft
Overcast 4800 ft
2018/01/19 14:54 KMRY 191454Z 00000KT 10SM FEW025 OVC048 10/09 A3012 RMK AO2 SLP213 T01000089 53004
KCCR - Concord, California, USA
Distance from station: N 50mi, 81km
Updated: Fri, 19-Jan-2018 6:53am PST
Clear
Clear
 Wind from S
Wind: S 3 mph , 6 km/h
Temperature: 46°F , 8°C
Dew Point: 43°F , 6°C
Humidity: 87%
Barometer: 30.11 inHg , 1019.6 hPa
Clouds: Clear
Visibility: 10 miles , 16 km
2018/01/19 14:53 KCCR 191453Z AUTO 17003KT 10SM CLR 08/06 A3011 RMK AO2 SLP183 T00830061 53006
deformed-offering